createdAt,value
2023-05-10T00:01:24.515Z,100100.22
2023-05-10T00:03:52.231Z,100103.91
2023-05-10T00:06:20.169Z,100098.75
2023-05-10T00:08:47.777Z,100100.75
2023-05-10T00:11:15.500Z,100103.41
2023-05-10T00:13:43.365Z,100098.44
2023-05-10T00:16:10.988Z,100091.41
2023-05-10T00:18:40.166Z,100103.16
2023-05-10T00:21:08.069Z,100093.44
2023-05-10T00:23:38.322Z,100094.44
2023-05-10T00:26:06.057Z,100092.97
2023-05-10T00:28:34.794Z,100086.78
2023-05-10T00:31:02.740Z,100093.16
2023-05-10T00:33:31.513Z,100091.47
2023-05-10T00:36:00.724Z,100091.66
2023-05-10T00:38:28.426Z,100090.81
2023-05-10T00:40:57.101Z,100090.16
2023-05-10T00:43:30.315Z,100084.00
2023-05-10T00:45:58.813Z,100090.28
2023-05-10T00:48:26.716Z,100088.81
2023-05-10T00:50:54.334Z,100089.00
2023-05-10T00:53:24.715Z,100090.03
2023-05-10T00:55:52.912Z,100083.81
2023-05-10T00:58:24.687Z,100079.66
2023-05-10T01:00:54.316Z,100087.03
2023-05-10T01:03:22.903Z,100085.38
2023-05-10T01:05:51.716Z,100082.84
2023-05-10T01:08:22.231Z,100083.88
2023-05-10T01:10:51.650Z,100086.53
2023-05-10T01:13:33.258Z,100086.53
2023-05-10T01:16:04.931Z,100082.38
2023-05-10T01:18:35.046Z,100086.06
2023-05-10T01:21:17.718Z,100085.41
2023-05-10T01:24:20.056Z,100084.75
2023-05-10T01:27:11.550Z,100086.41
2023-05-10T01:30:22.026Z,100089.28
2023-05-10T01:32:59.752Z,100092.28
2023-05-10T01:35:36.398Z,100086.09
2023-05-10T01:38:13.213Z,100090.63
2023-05-10T01:40:52.141Z,100096.16
2023-05-10T01:43:28.721Z,100088.28
2023-05-10T01:46:10.236Z,100094.66
2023-05-10T01:48:42.234Z,100092.81
2023-05-10T01:51:11.804Z,100096.88
2023-05-10T01:53:45.642Z,100103.38
2023-05-10T01:56:15.705Z,100106.88
2023-05-10T01:58:47.495Z,100100.06
2023-05-10T02:03:53.324Z,100104.91
2023-05-10T02:06:25.804Z,100107.75
2023-05-10T02:08:55.537Z,100110.63
2023-05-10T02:11:25.181Z,100119.66
2023-05-10T02:13:56.732Z,100121.50
2023-05-10T02:16:31.674Z,100132.88
2023-05-10T02:19:03.923Z,100133.22
2023-05-10T02:24:28.380Z,100133.13
2023-05-10T02:27:00.804Z,100135.13
2023-05-10T02:32:25.890Z,100151.03
2023-05-10T02:34:56.608Z,100142.69
2023-05-10T02:37:25.867Z,100136.84
2023-05-10T02:39:57.719Z,100146.38
2023-05-10T02:42:26.063Z,100149.22
2023-05-10T02:44:58.029Z,100143.38
2023-05-10T02:47:25.668Z,100148.53
2023-05-10T02:49:54.962Z,100154.06
2023-05-10T02:52:27.736Z,100149.56
2023-05-10T02:55:01.782Z,100147.88
2023-05-10T02:57:36.112Z,100151.56
2023-05-10T03:00:06.488Z,100146.41
2023-05-10T03:02:34.569Z,100149.06
2023-05-10T03:05:03.977Z,100155.56
2023-05-10T03:07:31.920Z,100151.22
2023-05-10T03:10:00.246Z,100150.41
2023-05-10T03:12:42.464Z,100152.41
2023-05-10T03:15:15.805Z,100156.22
2023-05-10T03:17:53.595Z,100161.72
2023-05-10T03:20:27.788Z,100156.56
2023-05-10T03:23:03.772Z,100162.88
2023-05-10T03:25:33.045Z,100161.22
2023-05-10T03:28:02.980Z,100161.38
2023-05-10T03:30:32.721Z,100172.06
2023-05-10T03:33:06.910Z,100168.75
2023-05-10T03:35:40.743Z,100168.75
2023-05-10T03:38:08.528Z,100170.91
2023-05-10T03:40:37.725Z,100175.41
2023-05-10T03:43:05.588Z,100177.25
2023-05-10T03:45:33.721Z,100180.09
2023-05-10T03:48:01.416Z,100181.06
2023-05-10T03:50:29.453Z,100182.91
2023-05-10T03:52:58.530Z,100188.41
2023-05-10T03:55:26.176Z,100189.25
2023-05-10T03:57:54.876Z,100189.41
2023-05-10T04:00:24.110Z,100197.59
2023-05-10T04:02:57.795Z,100198.59
2023-05-10T04:05:25.740Z,100198.59
2023-05-10T04:07:54.285Z,100208.44
2023-05-10T04:10:23.585Z,100204.94
2023-05-10T04:12:51.260Z,100201.41
2023-05-10T04:15:19.287Z,100207.78
2023-05-10T04:17:47.114Z,100207.78
2023-05-10T04:20:15.588Z,100216.44
2023-05-10T04:22:44.361Z,100213.09
2023-05-10T04:25:11.956Z,100209.44
2023-05-10T04:27:40.846Z,100209.59
2023-05-10T04:30:09.757Z,100204.94
2023-05-10T04:35:29.025Z,100207.59
2023-05-10T04:37:56.798Z,100211.09
2023-05-10T04:40:26.750Z,100207.44
2023-05-10T04:42:58.819Z,100213.78
2023-05-10T04:45:26.689Z,100216.31
2023-05-10T04:47:54.382Z,100220.63
2023-05-10T04:50:22.014Z,100218.78
2023-05-10T04:52:49.726Z,100220.47
2023-05-10T04:55:17.557Z,100223.13
2023-05-10T04:57:45.896Z,100225.63
2023-05-10T05:00:16.086Z,100223.78
2023-05-10T05:02:45.486Z,100234.47
2023-05-10T05:05:13.803Z,100237.84
2023-05-10T05:07:42.278Z,100231.50
2023-05-10T05:10:10.836Z,100235.00
2023-05-10T05:12:38.419Z,100240.03
2023-05-10T05:15:08.995Z,100239.84
2023-05-10T05:17:39.534Z,100240.50
2023-05-10T05:20:08.902Z,100248.34
2023-05-10T05:22:38.125Z,100246.38
2023-05-10T05:25:06.893Z,100247.03
2023-05-10T05:27:34.487Z,100249.41
2023-05-10T05:30:05.739Z,100246.56
2023-05-10T05:32:57.389Z,100247.91
2023-05-10T05:35:30.767Z,100251.06
2023-05-10T05:37:58.311Z,100262.41
2023-05-10T05:40:55.741Z,100260.25
2023-05-10T05:43:24.739Z,100261.94
2023-05-10T05:45:55.771Z,100266.13
2023-05-10T05:48:23.974Z,100266.59
2023-05-10T05:50:57.729Z,100262.09
2023-05-10T05:53:27.040Z,100258.28
2023-05-10T05:55:56.739Z,100263.28
2023-05-10T05:58:25.902Z,100261.28
2023-05-10T06:00:54.000Z,100269.97
2023-05-10T06:06:15.919Z,100272.63
2023-05-10T06:08:45.947Z,100272.28
2023-05-10T06:11:15.725Z,100280.84
2023-05-10T06:13:45.818Z,100281.31
2023-05-10T06:16:14.614Z,100285.31
2023-05-10T06:18:42.274Z,100278.78
2023-05-10T06:21:10.921Z,100282.81
2023-05-10T06:23:40.744Z,100288.81
2023-05-10T06:26:08.504Z,100286.47
2023-05-10T06:28:36.118Z,100296.16
2023-05-10T06:31:03.778Z,100298.69
2023-05-10T06:33:56.758Z,100295.84
2023-05-10T06:36:27.304Z,100300.84
2023-05-10T06:38:56.765Z,100311.38
2023-05-10T06:41:25.440Z,100302.19
2023-05-10T06:43:53.083Z,100303.66
2023-05-10T06:46:21.079Z,100301.69
2023-05-10T06:48:48.687Z,100309.34
2023-05-10T06:51:17.522Z,100311.69
2023-05-10T06:53:45.058Z,100314.19
2023-05-10T06:56:14.051Z,100307.66
2023-05-10T06:58:41.690Z,100314.72
2023-05-10T07:01:09.999Z,100313.69
2023-05-10T07:03:38.809Z,100310.19
2023-05-10T07:06:11.345Z,100310.19
2023-05-10T07:08:43.864Z,100311.19
2023-05-10T07:11:11.615Z,100313.00
2023-05-10T07:13:44.886Z,100319.22
2023-05-10T07:16:12.716Z,100330.91
2023-05-10T07:18:41.176Z,100327.25
2023-05-10T07:21:09.586Z,100327.25
2023-05-10T07:23:37.351Z,100328.09
2023-05-10T07:26:05.918Z,100336.94
2023-05-10T07:28:35.731Z,100341.47
2023-05-10T07:31:06.889Z,100336.09
2023-05-10T07:33:38.122Z,100340.44
2023-05-10T07:36:07.740Z,100347.28
2023-05-10T07:38:36.499Z,100344.28
2023-05-10T07:41:05.730Z,100342.91
2023-05-10T07:43:33.313Z,100343.25
2023-05-10T07:46:00.936Z,100344.91
2023-05-10T07:48:29.877Z,100341.56
2023-05-10T07:50:57.571Z,100344.22
2023-05-10T07:53:25.163Z,100346.22
2023-05-10T07:55:53.525Z,100338.31
2023-05-10T07:58:21.179Z,100339.81
2023-05-10T08:01:14.420Z,100341.31
2023-05-10T08:03:43.918Z,100339.28
2023-05-10T08:06:12.735Z,100335.25
2023-05-10T08:08:41.265Z,100342.59
2023-05-10T08:11:13.267Z,100339.03
2023-05-10T08:13:41.501Z,100343.50
2023-05-10T08:16:09.111Z,100346.63
2023-05-10T08:18:36.765Z,100342.91
2023-05-10T08:21:06.764Z,100343.69
2023-05-10T08:23:35.516Z,100340.41
2023-05-10T08:26:03.221Z,100349.41
2023-05-10T08:28:30.876Z,100348.97
2023-05-10T08:30:58.533Z,100348.44
2023-05-10T08:33:26.874Z,100349.28
2023-05-10T08:35:54.431Z,100357.31
2023-05-10T08:38:23.345Z,100352.31
2023-05-10T08:40:51.813Z,100363.03
2023-05-10T08:43:21.849Z,100356.84
2023-05-10T08:45:51.779Z,100363.00
2023-05-10T08:48:20.765Z,100362.06
2023-05-10T08:50:49.736Z,100361.66
2023-05-10T08:53:18.447Z,100360.00
2023-05-10T08:55:48.258Z,100361.59
2023-05-10T08:58:16.823Z,100365.66
2023-05-10T09:00:45.269Z,100365.31
2023-05-10T09:03:13.860Z,100374.09
2023-05-10T09:05:42.282Z,100369.41
2023-05-10T09:08:11.408Z,100377.09
2023-05-10T09:10:40.480Z,100380.78
2023-05-10T09:13:13.814Z,100381.81
2023-05-10T09:15:41.766Z,100377.75
2023-05-10T09:18:09.911Z,100383.22
2023-05-10T09:20:37.841Z,100387.13
2023-05-10T09:23:06.723Z,100381.94
2023-05-10T09:25:58.617Z,100386.00
2023-05-10T09:28:27.614Z,100390.00
2023-05-10T09:30:56.721Z,100397.47
2023-05-10T09:33:24.945Z,100391.94
2023-05-10T09:35:54.124Z,100393.97
2023-05-10T09:38:21.849Z,100393.69
2023-05-10T09:40:55.269Z,100391.47
2023-05-10T09:43:25.253Z,100401.00
2023-05-10T09:45:54.286Z,100406.22
2023-05-10T09:48:25.700Z,100404.09
2023-05-10T09:50:59.234Z,100410.66
2023-05-10T09:53:27.273Z,100400.84
2023-05-10T09:55:55.360Z,100409.38
2023-05-10T09:58:23.352Z,100405.75
2023-05-10T10:00:52.696Z,100402.16
2023-05-10T10:03:23.524Z,100395.47
2023-05-10T10:05:54.138Z,100405.03
2023-05-10T10:08:22.780Z,100403.19
2023-05-10T10:10:53.942Z,100409.41
2023-05-10T10:13:22.678Z,100405.72
2023-05-10T10:15:52.232Z,100411.22
2023-05-10T10:18:28.234Z,100410.28
2023-05-10T10:20:56.808Z,100411.03
2023-05-10T10:23:26.874Z,100408.34
2023-05-10T10:25:57.288Z,100409.19
2023-05-10T10:28:34.371Z,100424.28
2023-05-10T10:31:15.355Z,100417.72
2023-05-10T10:34:01.250Z,100407.81
2023-05-10T10:36:29.761Z,100403.81
2023-05-10T10:39:01.569Z,100409.81
2023-05-10T10:41:32.054Z,100405.84
2023-05-10T10:44:42.522Z,100406.56
2023-05-10T10:47:25.409Z,100401.47
2023-05-10T10:50:05.416Z,100399.75
2023-05-10T10:52:38.765Z,100413.00
2023-05-10T10:55:09.132Z,100410.88
2023-05-10T10:57:46.577Z,100411.91
2023-05-10T11:00:22.823Z,100412.53
2023-05-10T11:02:53.862Z,100411.72
2023-05-10T11:05:47.340Z,100412.75
2023-05-10T11:08:18.792Z,100409.97
2023-05-10T11:10:55.353Z,100417.13
2023-05-10T11:13:31.397Z,100412.75
2023-05-10T11:15:59.909Z,100417.63
2023-05-10T11:18:32.816Z,100419.56
2023-05-10T11:21:05.989Z,100414.00
2023-05-10T11:23:49.115Z,100420.66
2023-05-10T11:26:16.977Z,100421.09
2023-05-10T11:28:45.456Z,100424.63
2023-05-10T11:31:15.223Z,100419.03
2023-05-10T11:33:46.780Z,100435.19
2023-05-10T11:36:19.308Z,100434.31
2023-05-10T11:38:47.786Z,100447.97
2023-05-10T11:41:17.587Z,100454.88
2023-05-10T11:43:47.768Z,100455.81
2023-05-10T11:46:15.528Z,100455.06
2023-05-10T11:48:44.599Z,100448.41
2023-05-10T11:51:14.787Z,100456.19
2023-05-10T11:53:44.661Z,100454.53
2023-05-10T11:56:12.797Z,100454.34
2023-05-10T11:58:41.894Z,100453.78
2023-05-10T12:01:11.820Z,100452.84
2023-05-10T12:03:41.751Z,100459.53
2023-05-10T12:06:09.714Z,100457.41
2023-05-10T12:08:37.768Z,100464.19
2023-05-10T12:11:11.604Z,100461.56
2023-05-10T12:13:43.198Z,100469.97
2023-05-10T12:16:18.298Z,100473.00
2023-05-10T12:18:46.784Z,100469.69
2023-05-10T12:21:15.377Z,100477.75
2023-05-10T12:23:43.407Z,100479.22
2023-05-10T12:26:12.857Z,100479.88
2023-05-10T12:28:41.763Z,100486.38
2023-05-10T12:31:10.111Z,100485.16
2023-05-10T12:33:42.503Z,100483.94
2023-05-10T12:36:13.077Z,100481.72
2023-05-10T12:38:43.906Z,100483.38
2023-05-10T12:41:15.846Z,100489.22
2023-05-10T12:43:43.772Z,100488.00
2023-05-10T12:46:14.933Z,100482.81
2023-05-10T12:48:45.791Z,100488.75
2023-05-10T12:51:16.680Z,100488.13
2023-05-10T12:53:48.717Z,100486.81
2023-05-10T12:56:18.927Z,100492.59
2023-05-10T12:58:48.879Z,100489.91
2023-05-10T13:01:16.908Z,100491.75
2023-05-10T13:03:44.981Z,100494.25
2023-05-10T13:06:14.369Z,100491.56
2023-05-10T13:08:41.977Z,100496.28
2023-05-10T13:11:09.700Z,100494.25
2023-05-10T13:13:38.713Z,100485.50
2023-05-10T13:16:07.045Z,100482.47
2023-05-10T13:18:34.705Z,100489.69
2023-05-10T13:21:03.316Z,100490.25
2023-05-10T13:23:30.890Z,100492.59
2023-05-10T13:25:58.680Z,100490.53
2023-05-10T13:28:27.163Z,100497.00
2023-05-10T13:30:56.160Z,100494.06
2023-05-10T13:33:24.169Z,100487.94
2023-05-10T13:35:54.335Z,100485.47
2023-05-10T13:38:23.460Z,100486.97
2023-05-10T13:40:53.773Z,100486.97
2023-05-10T13:43:23.816Z,100485.19
2023-05-10T13:45:51.398Z,100482.00
2023-05-10T13:48:20.804Z,100493.16
2023-05-10T13:50:48.618Z,100497.06
2023-05-10T13:53:16.383Z,100495.91
2023-05-10T13:55:43.972Z,100495.97
2023-05-10T13:58:11.708Z,100498.41
2023-05-10T14:00:40.790Z,100496.47
2023-05-10T14:03:10.123Z,100498.66
2023-05-10T14:05:40.791Z,100498.72
2023-05-10T14:08:10.244Z,100500.47
2023-05-10T14:10:37.847Z,100502.56
2023-05-10T14:13:07.097Z,100503.16
2023-05-10T14:15:36.803Z,100501.97
2023-05-10T14:18:04.779Z,100497.50
2023-05-10T14:20:34.514Z,100497.34
2023-05-10T14:23:03.618Z,100507.03
2023-05-10T14:25:31.460Z,100506.91
2023-05-10T14:28:00.248Z,100508.34
2023-05-10T14:30:27.874Z,100502.13
2023-05-10T14:32:59.454Z,100505.81
2023-05-10T14:35:27.307Z,100508.72
2023-05-10T14:37:55.450Z,100506.78
2023-05-10T14:40:24.382Z,100506.53
2023-05-10T14:42:53.758Z,100510.94
2023-05-10T14:45:21.946Z,100514.72
2023-05-10T14:47:49.752Z,100511.56
2023-05-10T14:50:35.109Z,100514.25
2023-05-10T14:53:07.793Z,100520.94
2023-05-10T14:55:37.799Z,100514.47
2023-05-10T14:58:06.886Z,100521.50
2023-05-10T15:00:34.834Z,100520.13
2023-05-10T15:03:03.447Z,100518.84
2023-05-10T15:05:32.267Z,100516.06
2023-05-10T15:08:00.242Z,100519.09
2023-05-10T15:10:29.412Z,100518.66
2023-05-10T15:12:58.882Z,100514.94
2023-05-10T15:15:26.601Z,100523.66
2023-05-10T15:17:54.258Z,100523.31
2023-05-10T15:20:22.233Z,100527.84
2023-05-10T15:22:50.557Z,100519.31
2023-05-10T15:25:18.407Z,100530.88
2023-05-10T15:27:46.228Z,100528.75
2023-05-10T15:30:16.037Z,100525.63
2023-05-10T15:32:43.833Z,100527.00
2023-05-10T15:35:12.235Z,100530.91
2023-05-10T15:37:41.301Z,100540.16
2023-05-10T15:40:09.681Z,100541.16
2023-05-10T15:42:38.795Z,100539.50
2023-05-10T15:45:08.906Z,100538.47
2023-05-10T15:47:40.913Z,100542.84
2023-05-10T15:50:09.898Z,100543.22
2023-05-10T15:52:37.556Z,100546.25
2023-05-10T15:55:12.639Z,100550.50
2023-05-10T15:57:41.205Z,100550.50
2023-05-10T16:00:13.819Z,100555.88
2023-05-10T16:03:07.708Z,100558.75
2023-05-10T16:05:35.503Z,100558.13
2023-05-10T16:08:03.213Z,100563.31
2023-05-10T16:10:34.812Z,100553.19
2023-05-10T16:13:03.664Z,100561.06
2023-05-10T16:15:31.260Z,100562.75
2023-05-10T16:18:00.649Z,100565.59
2023-05-10T16:20:29.920Z,100558.38
2023-05-10T16:22:58.875Z,100558.03
2023-05-10T16:25:26.451Z,100562.19
2023-05-10T16:27:54.003Z,100561.56
2023-05-10T16:30:23.596Z,100570.44
2023-05-10T16:32:51.835Z,100564.25
2023-05-10T16:35:21.059Z,100566.72
2023-05-10T16:37:48.627Z,100565.91
2023-05-10T16:40:16.354Z,100562.19
2023-05-10T16:42:45.333Z,100570.94
2023-05-10T16:45:13.541Z,100566.38
2023-05-10T16:47:44.874Z,100575.09
2023-05-10T16:50:12.758Z,100580.47
2023-05-10T16:52:42.813Z,100580.28
2023-05-10T16:55:11.134Z,100578.41
2023-05-10T16:57:38.699Z,100580.13
2023-05-10T17:00:08.499Z,100579.28
2023-05-10T17:02:36.383Z,100578.88
2023-05-10T17:05:04.521Z,100588.25
2023-05-10T17:07:32.812Z,100587.41
2023-05-10T17:10:02.174Z,100582.94
2023-05-10T17:12:29.814Z,100581.94
2023-05-10T17:14:57.382Z,100587.50
2023-05-10T17:17:25.960Z,100582.75
2023-05-10T17:19:53.572Z,100584.25
2023-05-10T17:22:21.491Z,100589.06
2023-05-10T17:24:49.356Z,100593.25
2023-05-10T17:27:19.890Z,100595.41
2023-05-10T17:29:47.449Z,100598.94
2023-05-10T17:32:15.389Z,100595.75
2023-05-10T17:34:43.819Z,100600.78
2023-05-10T17:37:12.075Z,100596.59
2023-05-10T17:39:40.108Z,100598.81
2023-05-10T17:42:08.170Z,100601.22
2023-05-10T17:44:37.122Z,100611.31
2023-05-10T17:47:04.965Z,100606.94
2023-05-10T17:49:33.266Z,100609.00
2023-05-10T17:52:00.874Z,100611.69
2023-05-10T17:54:28.510Z,100610.53
2023-05-10T17:56:57.897Z,100612.56
2023-05-10T17:59:26.192Z,100615.25
2023-05-10T18:01:55.915Z,100612.75
2023-05-10T18:04:24.499Z,100615.63
2023-05-10T18:07:00.618Z,100619.34
2023-05-10T18:09:28.236Z,100618.50
2023-05-10T18:11:56.813Z,100624.91
2023-05-10T18:14:36.523Z,100625.25
2023-05-10T18:17:10.195Z,100633.84
2023-05-10T18:19:38.078Z,100641.44
2023-05-10T18:22:06.992Z,100633.88
2023-05-10T18:24:40.084Z,100641.09
2023-05-10T18:27:08.616Z,100642.13
2023-05-10T18:29:36.565Z,100645.97
2023-05-10T18:32:04.248Z,100649.88
2023-05-10T18:34:33.234Z,100650.00
2023-05-10T18:37:02.386Z,100644.00
2023-05-10T18:39:31.199Z,100645.19
2023-05-10T18:41:58.877Z,100647.41
2023-05-10T18:44:27.818Z,100652.13
2023-05-10T18:46:55.945Z,100653.13
2023-05-10T18:49:23.789Z,100657.81
2023-05-10T18:51:52.831Z,100656.53
2023-05-10T18:54:21.847Z,100657.50
2023-05-10T18:56:49.948Z,100656.03
2023-05-10T18:59:19.285Z,100659.25
2023-05-10T19:01:47.498Z,100656.09
2023-05-10T19:04:16.604Z,100665.31
2023-05-10T19:06:44.348Z,100668.34
2023-05-10T19:09:13.304Z,100667.84
2023-05-10T19:11:43.225Z,100671.91
2023-05-10T19:14:10.946Z,100677.81
2023-05-10T19:16:41.675Z,100682.03
2023-05-10T19:19:12.474Z,100683.38
2023-05-10T19:21:40.804Z,100688.22
2023-05-10T19:24:08.732Z,100685.91
2023-05-10T19:26:39.889Z,100685.22
2023-05-10T19:29:08.348Z,100694.28
2023-05-10T19:31:36.406Z,100695.47
2023-05-10T19:34:05.195Z,100693.13
2023-05-10T19:36:34.354Z,100688.97
2023-05-10T19:39:02.875Z,100694.66
2023-05-10T19:41:30.539Z,100696.69
2023-05-10T19:44:00.002Z,100690.66
2023-05-10T19:46:27.887Z,100687.97
2023-05-10T19:48:55.629Z,100695.34
2023-05-10T19:51:23.211Z,100686.63
2023-05-10T19:53:50.842Z,100688.81
2023-05-10T19:56:19.449Z,100685.66
2023-05-10T19:58:48.864Z,100689.50
2023-05-10T20:01:17.786Z,100688.16
2023-05-10T20:03:46.381Z,100690.16
2023-05-10T20:06:14.040Z,100692.16
2023-05-10T20:08:41.628Z,100697.53
2023-05-10T20:11:09.219Z,100696.03
2023-05-10T20:13:37.471Z,100704.41
2023-05-10T20:16:06.815Z,100697.56
2023-05-10T20:18:37.096Z,100707.75
2023-05-10T20:21:06.344Z,100702.75
2023-05-10T20:23:33.905Z,100713.97
2023-05-10T20:26:01.626Z,100708.63
2023-05-10T20:28:29.797Z,100711.97
2023-05-10T20:30:57.638Z,100721.50
2023-05-10T20:33:26.376Z,100713.13
2023-05-10T20:35:55.250Z,100723.84
2023-05-10T20:38:23.162Z,100723.84
2023-05-10T20:40:50.750Z,100726.34
2023-05-10T20:43:28.606Z,100728.84
2023-05-10T20:46:21.229Z,100723.44
2023-05-10T20:48:54.026Z,100742.47
2023-05-10T20:51:23.046Z,100743.97
2023-05-10T20:53:51.100Z,100745.31
2023-05-10T20:56:24.785Z,100749.13
2023-05-10T20:58:52.935Z,100749.63
2023-05-10T21:01:20.595Z,100751.94
2023-05-10T21:03:48.455Z,100757.75
2023-05-10T21:06:16.027Z,100765.25
2023-05-10T21:08:45.013Z,100755.88
2023-05-10T21:11:14.039Z,100756.19
2023-05-10T21:13:41.654Z,100746.78
2023-05-10T21:16:09.378Z,100758.34
2023-05-10T21:18:37.037Z,100754.00
2023-05-10T21:21:04.842Z,100757.66
2023-05-10T21:23:34.456Z,100750.66
2023-05-10T21:26:05.420Z,100744.75
2023-05-10T21:28:33.484Z,100741.09
2023-05-10T21:31:01.526Z,100748.44
2023-05-10T21:33:29.128Z,100739.75
2023-05-10T21:35:58.038Z,100742.59
2023-05-10T21:38:28.397Z,100744.56
2023-05-10T21:40:56.310Z,100745.72
2023-05-10T21:43:25.314Z,100747.72
2023-05-10T21:45:53.898Z,100746.03
2023-05-10T21:48:24.839Z,100745.38
2023-05-10T21:50:52.436Z,100738.47
2023-05-10T21:53:20.734Z,100748.50
2023-05-10T21:55:48.894Z,100747.00
2023-05-10T21:58:16.769Z,100744.47
2023-05-10T22:00:45.654Z,100748.13
2023-05-10T22:03:13.960Z,100746.78
2023-05-10T22:05:41.727Z,100754.94
2023-05-10T22:08:10.846Z,100755.13
2023-05-10T22:10:38.486Z,100758.97
2023-05-10T22:13:06.849Z,100752.78
2023-05-10T22:15:36.394Z,100752.91
2023-05-10T22:18:05.982Z,100749.56
2023-05-10T22:20:34.262Z,100760.56
2023-05-10T22:23:02.033Z,100760.88
2023-05-10T22:25:29.652Z,100763.72
2023-05-10T22:27:57.937Z,100763.84
2023-05-10T22:30:25.770Z,100764.00
2023-05-10T22:32:53.708Z,100760.66
2023-05-10T22:35:24.856Z,100761.66
2023-05-10T22:37:52.450Z,100759.00
2023-05-10T22:40:20.828Z,100767.16
2023-05-10T22:42:48.395Z,100771.66
2023-05-10T22:45:16.681Z,100773.66
2023-05-10T22:47:44.293Z,100763.13
2023-05-10T22:50:12.896Z,100765.94
2023-05-10T22:52:41.905Z,100766.94
2023-05-10T22:55:11.046Z,100769.78
2023-05-10T22:57:39.845Z,100766.41
2023-05-10T23:00:09.154Z,100763.22
2023-05-10T23:02:36.965Z,100764.22
2023-05-10T23:05:05.708Z,100762.53
2023-05-10T23:07:33.585Z,100763.66
2023-05-10T23:10:03.838Z,100764.81
2023-05-10T23:12:31.912Z,100758.81
2023-05-10T23:14:59.557Z,100767.78
2023-05-10T23:17:27.236Z,100760.78
2023-05-10T23:22:47.208Z,100762.94
2023-05-10T23:25:16.978Z,100762.22
2023-05-10T23:27:44.665Z,100763.22
2023-05-10T23:30:12.979Z,100759.72
2023-05-10T23:32:40.864Z,100763.38
2023-05-10T23:35:10.863Z,100769.56
2023-05-10T23:37:38.493Z,100766.22
2023-05-10T23:40:07.276Z,100768.03
2023-05-10T23:42:36.637Z,100763.84
2023-05-10T23:45:04.985Z,100764.69
2023-05-10T23:47:32.658Z,100758.66
2023-05-10T23:50:00.584Z,100760.50
2023-05-10T23:52:28.211Z,100765.97
2023-05-10T23:54:55.975Z,100758.66
2023-05-10T23:57:23.705Z,100762.31
2023-05-10T23:59:53.617Z,100765.84
